createdAt,value
2019-04-29T00:02:35.027Z,101523.75
2019-04-29T00:05:10.815Z,101522.06
2019-04-29T00:07:46.280Z,101519.02
2019-04-29T00:10:21.773Z,101515.98
2019-04-29T00:12:56.958Z,101520.22
2019-04-29T00:15:34.057Z,101517.33
2019-04-29T00:18:17.242Z,101516.08
2019-04-29T00:20:53.276Z,101516.48
2019-04-29T00:23:28.710Z,101522.31
2019-04-29T00:26:04.483Z,101512.16
2019-04-29T00:28:39.549Z,101520.27
2019-04-29T00:31:14.658Z,101513.44
2019-04-29T00:33:49.771Z,101518.47
2019-04-29T00:36:26.894Z,101517.08
2019-04-29T00:39:04.166Z,101504.20
2019-04-29T00:41:49.030Z,101512.35
2019-04-29T00:44:24.954Z,101512.75
2019-04-29T00:47:00.193Z,101515.24
2019-04-29T00:49:37.032Z,101511.86
2019-04-29T00:52:13.066Z,101505.28
2019-04-29T00:54:52.914Z,101510.37
2019-04-29T00:57:29.865Z,101511.66
2019-04-29T01:00:07.819Z,101515.80
2019-04-29T01:02:44.498Z,101515.00
2019-04-29T01:05:22.229Z,101515.05
2019-04-29T01:07:58.621Z,101512.02
2019-04-29T01:10:33.735Z,101509.38
2019-04-29T01:13:10.760Z,101511.72
2019-04-29T01:15:45.873Z,101512.31
2019-04-29T01:18:32.834Z,101522.22
2019-04-29T01:21:11.415Z,101515.51
2019-04-29T01:23:47.011Z,101511.48
2019-04-29T01:26:27.392Z,101515.34
2019-04-29T01:29:04.566Z,101508.17
2019-04-29T01:31:42.025Z,101507.93
2019-04-29T01:34:19.644Z,101513.89
2019-04-29T01:36:55.274Z,101511.56
2019-04-29T01:39:35.400Z,101506.78
2019-04-29T01:42:21.567Z,101513.41
2019-04-29T01:44:59.777Z,101501.91
2019-04-29T01:47:35.299Z,101500.27
2019-04-29T01:50:10.500Z,101495.48
2019-04-29T01:52:47.131Z,101499.17
2019-04-29T01:55:23.814Z,101496.18
2019-04-29T01:57:59.557Z,101483.34
2019-04-29T02:00:34.633Z,101488.81
2019-04-29T02:03:10.930Z,101487.20
2019-04-29T02:05:46.326Z,101486.41
2019-04-29T02:08:22.596Z,101488.90
2019-04-29T02:10:57.677Z,101483.58
2019-04-29T02:13:34.112Z,101483.98
2019-04-29T02:16:10.119Z,101496.15
2019-04-29T02:18:45.581Z,101480.09
2019-04-29T02:21:21.029Z,101485.05
2019-04-29T02:24:08.050Z,101479.38
2019-04-29T02:26:43.131Z,101480.23
2019-04-29T02:29:18.201Z,101475.86
2019-04-29T02:31:54.426Z,101477.20
2019-04-29T02:34:29.497Z,101469.78
2019-04-29T02:37:07.117Z,101465.76
2019-04-29T02:39:43.995Z,101466.06
2019-04-29T02:42:40.104Z,101457.42
2019-04-29T02:45:16.878Z,101459.48
2019-04-29T02:47:51.909Z,101451.53
2019-04-29T02:50:26.949Z,101448.68
2019-04-29T02:53:02.022Z,101449.58
2019-04-29T02:55:38.722Z,101445.16
2019-04-29T02:58:15.421Z,101452.80
2019-04-29T03:01:09.603Z,101450.16
2019-04-29T03:04:02.490Z,101440.33
2019-04-29T03:06:37.558Z,101440.33
2019-04-29T03:09:12.579Z,101430.94
2019-04-29T03:11:47.632Z,101440.67
2019-04-29T03:14:23.600Z,101433.48
2019-04-29T03:16:59.607Z,101434.77
2019-04-29T03:19:37.084Z,101425.73
2019-04-29T03:22:12.547Z,101423.41
2019-04-29T03:24:48.745Z,101417.53
2019-04-29T03:27:23.785Z,101420.27
2019-04-29T03:29:58.940Z,101416.34
2019-04-29T03:32:34.071Z,101408.30
2019-04-29T03:35:09.366Z,101407.08
2019-04-29T03:37:44.431Z,101403.41
2019-04-29T03:40:19.481Z,101403.77
2019-04-29T03:42:55.781Z,101396.52
2019-04-29T03:45:31.098Z,101401.43
2019-04-29T03:48:06.147Z,101398.61
2019-04-29T03:50:41.194Z,101399.02
2019-04-29T03:53:16.255Z,101399.50
2019-04-29T03:55:53.036Z,101396.33
2019-04-29T03:58:29.303Z,101391.95
2019-04-29T04:01:05.975Z,101388.81
2019-04-29T04:03:44.338Z,101388.77
2019-04-29T04:06:21.912Z,101374.41
2019-04-29T04:09:06.238Z,101382.86
2019-04-29T04:11:36.692Z,101383.80
2019-04-29T04:14:12.753Z,101376.63
2019-04-29T04:17:09.772Z,101383.69
2019-04-29T04:19:45.377Z,101380.47
2019-04-29T04:22:20.437Z,101383.09
2019-04-29T04:24:55.507Z,101381.36
2019-04-29T04:27:30.565Z,101375.85
2019-04-29T04:30:07.449Z,101375.10
2019-04-29T04:32:42.497Z,101367.98
2019-04-29T04:35:18.650Z,101371.88
2019-04-29T04:37:53.715Z,101370.13
2019-04-29T04:40:44.534Z,101365.86
2019-04-29T04:43:19.646Z,101372.06
2019-04-29T04:45:55.526Z,101362.63
2019-04-29T04:48:31.788Z,101367.91
2019-04-29T04:51:06.841Z,101359.98
2019-04-29T04:53:42.172Z,101361.73
2019-04-29T04:56:17.514Z,101361.78
2019-04-29T04:58:52.595Z,101353.92
2019-04-29T05:01:27.911Z,101351.64
2019-04-29T05:04:03.529Z,101350.59
2019-04-29T05:06:38.593Z,101353.46
2019-04-29T05:09:13.926Z,101349.33
2019-04-29T05:11:49.031Z,101344.65
2019-04-29T05:14:24.390Z,101350.22
2019-04-29T05:16:59.466Z,101349.11
2019-04-29T05:19:34.925Z,101350.75
2019-04-29T05:22:09.970Z,101357.61
2019-04-29T05:24:45.387Z,101360.23
2019-04-29T05:27:21.207Z,101350.12
2019-04-29T05:29:56.362Z,101361.06
2019-04-29T05:32:31.835Z,101360.44
2019-04-29T05:35:12.442Z,101354.12
2019-04-29T05:37:52.337Z,101350.83
2019-04-29T05:40:38.456Z,101346.80
2019-04-29T05:43:15.434Z,101349.44
2019-04-29T05:46:01.931Z,101349.89
2019-04-29T05:48:37.252Z,101354.70
2019-04-29T05:51:33.402Z,101352.15
2019-04-29T05:54:11.619Z,101351.14
2019-04-29T05:56:48.087Z,101355.89
2019-04-29T05:59:23.404Z,101368.95
2019-04-29T06:01:58.865Z,101368.33
2019-04-29T06:04:34.628Z,101370.81
2019-04-29T06:07:09.679Z,101372.95
2019-04-29T06:09:44.750Z,101366.58
2019-04-29T06:12:20.086Z,101369.98
2019-04-29T06:14:55.160Z,101367.09
2019-04-29T06:17:30.620Z,101365.31
2019-04-29T06:20:06.776Z,101359.95
2019-04-29T06:22:43.482Z,101354.41
2019-04-29T06:25:31.615Z,101351.92
2019-04-29T06:28:13.919Z,101348.58
2019-04-29T06:30:53.147Z,101330.86
2019-04-29T06:33:29.057Z,101325.96
2019-04-29T06:36:06.937Z,101319.98
2019-04-29T06:38:43.678Z,101330.12
2019-04-29T06:41:19.753Z,101323.02
2019-04-29T06:43:56.176Z,101318.58
2019-04-29T06:46:31.411Z,101315.09
2019-04-29T06:49:10.416Z,101319.00
2019-04-29T06:51:44.210Z,101323.98
2019-04-29T06:54:19.327Z,101335.47
2019-04-29T06:56:55.430Z,101342.13
2019-04-29T06:59:30.663Z,101344.02
2019-04-29T07:02:09.472Z,101342.18
2019-04-29T07:04:42.700Z,101341.73
2019-04-29T07:07:21.002Z,101340.84
2019-04-29T07:09:59.015Z,101335.36
2019-04-29T07:12:42.813Z,101333.62
2019-04-29T07:15:15.644Z,101328.82
2019-04-29T07:17:51.223Z,101331.72
2019-04-29T07:20:32.539Z,101330.83
2019-04-29T07:23:08.482Z,101335.68
2019-04-29T07:25:45.037Z,101328.80
2019-04-29T07:28:21.255Z,101326.22
2019-04-29T07:31:01.400Z,101327.87
2019-04-29T07:33:33.185Z,101323.14
2019-04-29T07:36:11.195Z,101325.70
2019-04-29T07:38:46.602Z,101327.38
2019-04-29T07:41:22.878Z,101325.51
2019-04-29T07:43:57.981Z,101325.51
2019-04-29T07:46:56.329Z,101316.19
2019-04-29T07:49:22.799Z,101316.81
2019-04-29T07:51:59.194Z,101318.28
2019-04-29T07:54:34.366Z,101323.20
2019-04-29T07:57:12.353Z,101321.92
2019-04-29T07:59:47.416Z,101315.20
2019-04-29T08:02:22.549Z,101316.87
2019-04-29T08:04:59.809Z,101317.22
2019-04-29T08:07:38.456Z,101322.00
2019-04-29T08:10:23.280Z,101323.17
2019-04-29T08:12:51.194Z,101331.64
2019-04-29T08:15:26.736Z,101322.02
2019-04-29T08:18:06.825Z,101325.66
2019-04-29T08:20:39.816Z,101324.66
2019-04-29T08:23:15.499Z,101329.30
2019-04-29T08:25:51.006Z,101327.34
2019-04-29T08:28:28.208Z,101323.70
2019-04-29T08:31:03.430Z,101315.58
2019-04-29T08:33:42.219Z,101322.08
2019-04-29T08:36:15.430Z,101320.67
2019-04-29T08:38:50.545Z,101319.05
2019-04-29T08:41:29.607Z,101313.95
2019-04-29T08:44:16.240Z,101317.17
2019-04-29T08:46:54.080Z,101312.52
2019-04-29T08:49:29.582Z,101315.94
2019-04-29T08:52:08.469Z,101306.72
2019-04-29T08:54:43.655Z,101314.80
2019-04-29T08:57:19.876Z,101302.95
2019-04-29T08:59:55.835Z,101301.71
2019-04-29T09:02:35.187Z,101305.38
2019-04-29T09:05:11.490Z,101298.97
2019-04-29T09:07:45.129Z,101303.08
2019-04-29T09:10:20.483Z,101298.66
2019-04-29T09:12:56.565Z,101294.31
2019-04-29T09:15:31.654Z,101293.02
2019-04-29T09:18:11.146Z,101295.30
2019-04-29T09:20:45.550Z,101298.89
2019-04-29T09:23:26.059Z,101288.77
2019-04-29T09:26:03.337Z,101286.38
2019-04-29T09:28:38.530Z,101285.05
2019-04-29T09:31:13.920Z,101288.61
2019-04-29T09:33:52.318Z,101284.02
2019-04-29T09:36:28.825Z,101284.37
2019-04-29T09:39:05.769Z,101293.83
2019-04-29T09:41:43.962Z,101281.91
2019-04-29T09:44:40.379Z,101281.58
2019-04-29T09:47:16.305Z,101280.95
2019-04-29T09:49:52.563Z,101280.41
2019-04-29T09:52:27.892Z,101280.97
2019-04-29T09:55:04.014Z,101284.22
2019-04-29T09:57:40.505Z,101273.50
2019-04-29T10:00:27.882Z,101276.55
2019-04-29T10:03:05.145Z,101271.54
2019-04-29T10:05:58.156Z,101278.58
2019-04-29T10:08:33.248Z,101283.63
2019-04-29T10:11:08.830Z,101276.23
2019-04-29T10:13:45.360Z,101273.45
2019-04-29T10:16:31.659Z,101299.30
2019-04-29T10:19:14.860Z,101284.48
2019-04-29T10:21:49.954Z,101286.02
2019-04-29T10:24:25.117Z,101290.37
2019-04-29T10:27:00.758Z,101285.88
2019-04-29T10:29:37.282Z,101295.80
2019-04-29T10:32:12.594Z,101289.63
2019-04-29T10:34:48.001Z,101294.60
2019-04-29T10:37:31.439Z,101284.27
2019-04-29T10:40:19.831Z,101283.34
2019-04-29T10:43:11.151Z,101289.63
2019-04-29T10:46:03.450Z,101285.34
2019-04-29T10:48:40.817Z,101284.20
2019-04-29T10:51:16.748Z,101285.03
2019-04-29T10:53:52.705Z,101290.06
2019-04-29T10:56:29.177Z,101286.94
2019-04-29T10:59:09.229Z,101286.78
2019-04-29T11:02:09.001Z,101281.76
2019-04-29T11:04:40.090Z,101279.48
2019-04-29T11:07:26.315Z,101275.66
2019-04-29T11:09:58.836Z,101285.95
2019-04-29T11:12:36.123Z,101291.69
2019-04-29T11:15:13.959Z,101284.86
2019-04-29T11:17:58.512Z,101283.50
2019-04-29T11:20:26.144Z,101277.52
2019-04-29T11:23:19.293Z,101278.71
2019-04-29T11:26:13.602Z,101286.06
2019-04-29T11:28:51.220Z,101288.25
2019-04-29T11:31:30.284Z,101283.34
2019-04-29T11:34:24.948Z,101282.23
2019-04-29T11:37:00.075Z,101287.47
2019-04-29T11:39:35.219Z,101285.24
2019-04-29T11:42:11.406Z,101287.16
2019-04-29T11:44:48.450Z,101283.26
2019-04-29T11:47:26.353Z,101279.28
2019-04-29T11:50:07.530Z,101282.45
2019-04-29T11:52:41.384Z,101282.45
2019-04-29T11:55:18.418Z,101278.09
2019-04-29T11:57:58.750Z,101273.58
2019-04-29T12:00:38.787Z,101277.52
2019-04-29T12:03:33.383Z,101274.64
2019-04-29T12:06:10.188Z,101265.38
2019-04-29T12:08:48.276Z,101263.98
2019-04-29T12:11:23.041Z,101260.52
2019-04-29T12:14:09.840Z,101257.90
2019-04-29T12:16:54.952Z,101247.99
2019-04-29T12:19:35.251Z,101257.92
2019-04-29T12:22:25.323Z,101253.34
2019-04-29T12:24:47.450Z,101255.05
2019-04-29T12:27:23.332Z,101255.33
2019-04-29T12:29:59.540Z,101253.07
2019-04-29T12:32:49.386Z,101249.46
2019-04-29T12:35:26.159Z,101252.47
2019-04-29T12:38:10.941Z,101249.19
2019-04-29T12:40:55.128Z,101243.82
2019-04-29T12:43:54.017Z,101236.53
2019-04-29T12:46:28.273Z,101218.81
2019-04-29T12:49:08.704Z,101233.39
2019-04-29T12:51:42.268Z,101226.77
2019-04-29T12:54:17.681Z,101222.84
2019-04-29T12:56:54.072Z,101222.79
2019-04-29T12:59:30.502Z,101219.73
2019-04-29T13:02:28.413Z,101219.48
2019-04-29T13:05:09.753Z,101220.98
2019-04-29T13:07:47.870Z,101211.05
2019-04-29T13:10:29.152Z,101214.44
2019-04-29T13:13:04.325Z,101210.80
2019-04-29T13:15:48.475Z,101239.84
2019-04-29T13:18:25.912Z,101199.97
2019-04-29T13:21:09.915Z,101213.52
2019-04-29T13:23:55.038Z,101211.88
2019-04-29T13:26:27.966Z,101211.56
2019-04-29T13:29:01.971Z,101208.74
2019-04-29T13:31:38.616Z,101212.64
2019-04-29T13:34:24.429Z,101216.23
2019-04-29T13:37:06.045Z,101203.41
2019-04-29T13:39:39.804Z,101204.02
2019-04-29T13:42:15.355Z,101206.36
2019-04-29T13:45:06.262Z,101200.39
2019-04-29T13:47:42.448Z,101203.52
2019-04-29T13:50:38.193Z,101195.28
2019-04-29T13:53:00.173Z,101179.05
2019-04-29T13:55:47.798Z,101170.03
2019-04-29T13:58:14.569Z,101161.93
2019-04-29T14:00:59.938Z,101161.56
2019-04-29T14:03:42.085Z,101155.18
2019-04-29T14:06:18.700Z,101156.70
2019-04-29T14:08:54.245Z,101163.95
2019-04-29T14:11:31.604Z,101156.71
2019-04-29T14:14:08.728Z,101148.49
2019-04-29T14:16:47.593Z,101142.42
2019-04-29T14:19:40.454Z,101144.64
2019-04-29T14:22:02.179Z,101148.06
2019-04-29T14:24:39.807Z,101145.31
2019-04-29T14:27:24.524Z,101154.24
2019-04-29T14:29:53.403Z,101151.59
2019-04-29T14:32:35.896Z,101147.23
2019-04-29T14:35:11.769Z,101144.72
2019-04-29T14:37:55.266Z,101147.23
2019-04-29T14:40:39.089Z,101145.25
2019-04-29T14:43:39.436Z,101145.08
2019-04-29T14:46:22.110Z,101139.66
2019-04-29T14:49:06.039Z,101146.66
2019-04-29T14:51:56.490Z,101143.14
2019-04-29T14:54:36.843Z,101145.70
2019-04-29T14:57:12.205Z,101147.41
2019-04-29T14:59:53.629Z,101145.42
2019-04-29T15:02:31.332Z,101139.98
2019-04-29T15:05:12.202Z,101144.59
2019-04-29T15:07:48.767Z,101146.50
2019-04-29T15:10:31.123Z,101140.05
2019-04-29T15:13:21.315Z,101146.63
2019-04-29T15:16:09.476Z,101150.81
2019-04-29T15:18:50.640Z,101151.41
2019-04-29T15:21:32.842Z,101133.09
2019-04-29T15:24:08.119Z,101131.58
2019-04-29T15:26:44.950Z,101140.18
2019-04-29T15:29:20.346Z,101138.13
2019-04-29T15:31:59.246Z,101134.37
2019-04-29T15:34:34.809Z,101135.23
2019-04-29T15:37:11.805Z,101139.63
2019-04-29T15:39:51.427Z,101133.05
2019-04-29T15:42:29.722Z,101137.31
2019-04-29T15:45:09.217Z,101133.78
2019-04-29T15:47:58.684Z,101132.96
2019-04-29T15:50:38.992Z,101136.55
2019-04-29T15:53:15.352Z,101134.17
2019-04-29T15:56:06.213Z,101133.62
2019-04-29T15:58:31.781Z,101139.17
2019-04-29T16:01:27.317Z,101134.83
2019-04-29T16:04:01.259Z,101140.53
2019-04-29T16:06:58.177Z,101140.17
2019-04-29T16:09:51.082Z,101140.17
2019-04-29T16:12:24.741Z,101137.27
2019-04-29T16:15:02.684Z,101117.48
2019-04-29T16:17:39.558Z,101117.48
2019-04-29T16:20:19.234Z,101147.30
2019-04-29T16:23:02.216Z,101147.91
2019-04-29T16:25:41.011Z,101150.06
2019-04-29T16:28:17.670Z,101152.20
2019-04-29T16:30:57.726Z,101145.60
2019-04-29T16:33:34.374Z,101148.75
2019-04-29T16:36:11.521Z,101139.03
2019-04-29T16:38:51.367Z,101131.34
2019-04-29T16:41:43.775Z,101140.41
2019-04-29T16:44:34.652Z,101140.45
2019-04-29T16:46:58.637Z,101147.45
2019-04-29T16:49:45.363Z,101155.09
2019-04-29T16:52:26.075Z,101146.78
2019-04-29T16:55:04.013Z,101146.70
2019-04-29T16:57:39.399Z,101157.93
2019-04-29T17:00:19.659Z,101161.02
2019-04-29T17:02:55.376Z,101170.72
2019-04-29T17:05:34.745Z,101164.83
2019-04-29T17:08:15.156Z,101171.45
2019-04-29T17:11:02.616Z,101178.59
2019-04-29T17:19:47.183Z,101194.00
2019-04-29T17:22:27.175Z,101191.28
2019-04-29T17:31:17.574Z,101201.03
2019-04-29T17:33:56.714Z,101201.62
2019-04-29T17:36:31.937Z,101199.50
2019-04-29T17:39:09.559Z,101213.17
2019-04-29T17:41:45.049Z,101224.27
2019-04-29T17:44:34.720Z,101217.98
2019-04-29T17:47:29.004Z,101227.03
2019-04-29T17:50:30.927Z,101230.95
2019-04-29T17:56:27.131Z,101248.72
2019-04-29T17:59:48.899Z,101233.91
2019-04-29T18:06:24.225Z,101249.78
2019-04-29T18:09:04.971Z,101261.03
2019-04-29T18:11:50.599Z,101264.57
2019-04-29T18:14:19.739Z,101272.16
2019-04-29T18:16:55.939Z,101273.52
2019-04-29T18:19:34.832Z,101277.34
2019-04-29T18:22:14.752Z,101278.10
2019-04-29T18:24:52.615Z,101281.09
2019-04-29T18:27:31.250Z,101287.36
2019-04-29T18:30:12.275Z,101293.69
2019-04-29T18:32:46.654Z,101295.53
2019-04-29T18:35:22.013Z,101293.44
2019-04-29T18:37:57.140Z,101299.20
2019-04-29T18:40:35.502Z,101307.80
2019-04-29T18:43:09.083Z,101304.52
2019-04-29T18:45:55.844Z,101310.92
2019-04-29T18:48:21.665Z,101308.80
2019-04-29T18:50:57.207Z,101309.90
2019-04-29T18:53:32.352Z,101317.80
2019-04-29T18:56:07.415Z,101321.19
2019-04-29T18:58:46.821Z,101325.67
2019-04-29T19:01:19.793Z,101324.77
2019-04-29T19:04:00.416Z,101333.28
2019-04-29T19:06:37.243Z,101328.69
2019-04-29T19:09:18.582Z,101340.91
2019-04-29T19:11:50.243Z,101341.96
2019-04-29T19:14:28.288Z,101337.69
2019-04-29T19:17:04.759Z,101341.77
2019-04-29T19:19:39.817Z,101341.17
2019-04-29T19:22:19.446Z,101345.95
2019-04-29T19:24:57.311Z,101346.72
2019-04-29T19:27:37.128Z,101350.94
2019-04-29T19:30:16.018Z,101345.51
2019-04-29T19:32:53.994Z,101350.89
2019-04-29T19:35:38.268Z,101350.83
2019-04-29T19:38:12.438Z,101346.30
2019-04-29T19:40:54.155Z,101346.17
2019-04-29T19:43:30.977Z,101344.94
2019-04-29T19:46:06.937Z,101346.27
2019-04-29T19:48:48.269Z,101346.69
2019-04-29T19:51:26.041Z,101342.22
2019-04-29T19:54:05.161Z,101344.05
2019-04-29T19:56:43.517Z,101336.83
2019-04-29T19:59:18.942Z,101346.64
2019-04-29T20:02:05.751Z,101346.86
2019-04-29T20:04:42.608Z,101344.48
2019-04-29T20:07:20.847Z,101349.30
2019-04-29T20:10:05.532Z,101357.12
2019-04-29T20:12:46.205Z,101359.00
2019-04-29T20:15:20.626Z,101359.11
2019-04-29T20:18:04.493Z,101357.93
2019-04-29T20:20:46.201Z,101361.70
2019-04-29T20:23:26.104Z,101366.83
2019-04-29T20:26:14.011Z,101364.02
2019-04-29T20:28:38.976Z,101368.15
2019-04-29T20:31:21.714Z,101373.66
2019-04-29T20:33:52.984Z,101365.17
2019-04-29T20:36:40.835Z,101382.80
2019-04-29T20:39:14.867Z,101383.64
2019-04-29T20:41:48.677Z,101381.34
2019-04-29T20:44:24.384Z,101380.28
2019-04-29T20:47:16.729Z,101389.91
2019-04-29T20:49:39.548Z,101394.03
2019-04-29T20:52:20.324Z,101401.38
2019-04-29T20:55:00.857Z,101404.28
2019-04-29T20:57:33.038Z,101407.37
2019-04-29T21:00:09.134Z,101407.29
2019-04-29T21:02:48.589Z,101403.80
2019-04-29T21:05:27.609Z,101417.34
2019-04-29T21:08:03.651Z,101414.53
2019-04-29T21:10:43.087Z,101413.77
2019-04-29T21:13:20.637Z,101414.84
2019-04-29T21:15:59.504Z,101418.72
2019-04-29T21:18:38.792Z,101413.84
2019-04-29T21:21:15.215Z,101416.16
2019-04-29T21:23:50.717Z,101423.41
2019-04-29T21:26:26.716Z,101418.53
2019-04-29T21:29:02.391Z,101423.13
2019-04-29T21:31:39.364Z,101426.70
2019-04-29T21:34:17.359Z,101422.04
2019-04-29T21:36:56.594Z,101424.13
2019-04-29T21:39:46.855Z,101430.25
2019-04-29T21:42:35.781Z,101433.09
2019-04-29T21:45:09.057Z,101428.35
2019-04-29T21:47:47.813Z,101431.12
2019-04-29T21:50:21.602Z,101427.08
2019-04-29T21:53:01.773Z,101432.19
2019-04-29T21:55:35.784Z,101434.19
2019-04-29T21:58:12.324Z,101427.21
2019-04-29T22:00:48.352Z,101426.41
2019-04-29T22:03:27.775Z,101428.55
2019-04-29T22:06:07.649Z,101429.65
2019-04-29T22:08:42.832Z,101423.77
2019-04-29T22:11:17.947Z,101427.95
2019-04-29T22:13:53.025Z,101434.09
2019-04-29T22:16:28.124Z,101432.38
2019-04-29T22:19:04.552Z,101430.67
2019-04-29T22:21:39.710Z,101425.89
2019-04-29T22:24:16.247Z,101426.66
2019-04-29T22:26:58.170Z,101419.23
2019-04-29T22:29:31.975Z,101417.45
2019-04-29T22:32:07.816Z,101440.53
2019-04-29T22:34:43.030Z,101424.78
2019-04-29T22:37:20.760Z,101431.56
2019-04-29T22:39:58.670Z,101433.87
2019-04-29T22:42:42.556Z,101440.67
2019-04-29T22:45:18.178Z,101436.29
2019-04-29T22:47:55.627Z,101439.41
2019-04-29T22:50:33.703Z,101438.67
2019-04-29T22:53:08.938Z,101436.27
2019-04-29T22:55:45.265Z,101430.47
2019-04-29T22:58:21.383Z,101434.19
2019-04-29T23:00:57.711Z,101429.91
2019-04-29T23:03:37.209Z,101430.73
2019-04-29T23:06:09.900Z,101430.92
2019-04-29T23:08:45.343Z,101440.84
2019-04-29T23:11:20.773Z,101435.05
2019-04-29T23:13:55.877Z,101433.48
2019-04-29T23:16:35.804Z,101428.65
2019-04-29T23:19:13.947Z,101430.51
2019-04-29T23:21:52.343Z,101427.68
2019-04-29T23:24:46.646Z,101427.89
2019-04-29T23:27:22.712Z,101431.91
2019-04-29T23:30:00.245Z,101419.23
2019-04-29T23:32:39.447Z,101423.31
2019-04-29T23:35:15.020Z,101417.48
2019-04-29T23:37:50.073Z,101421.12
2019-04-29T23:40:25.484Z,101411.69
2019-04-29T23:43:00.598Z,101419.06
2019-04-29T23:45:36.001Z,101414.27
2019-04-29T23:48:12.369Z,101412.17
2019-04-29T23:50:49.703Z,101408.99
2019-04-29T23:53:25.261Z,101406.45
2019-04-29T23:56:05.685Z,101407.05
2019-04-29T23:58:47.031Z,101412.28
